createdAt,value
2019-05-26T00:00:59.542Z,62.45
2019-05-26T00:03:31.415Z,62.78
2019-05-26T00:06:03.310Z,63.24
2019-05-26T00:08:35.180Z,62.86
2019-05-26T00:11:07.281Z,63.69
2019-05-26T00:13:39.147Z,63.12
2019-05-26T00:16:11.021Z,63.67
2019-05-26T00:18:42.901Z,63.73
2019-05-26T00:21:14.771Z,64.02
2019-05-26T00:23:46.589Z,64.14
2019-05-26T00:26:18.456Z,64.18
2019-05-26T00:28:50.383Z,64.27
2019-05-26T00:31:22.269Z,64.25
2019-05-26T00:33:54.156Z,64.18
2019-05-26T00:36:26.051Z,64.13
2019-05-26T00:38:58.214Z,64.16
2019-05-26T00:41:30.226Z,63.70
2019-05-26T00:44:02.151Z,63.44
2019-05-26T00:46:34.036Z,64.22
2019-05-26T00:49:05.948Z,63.72
2019-05-26T00:51:38.726Z,63.44
2019-05-26T00:54:10.544Z,63.45
2019-05-26T00:56:42.428Z,63.46
2019-05-26T00:59:14.306Z,63.68
2019-05-26T01:01:46.100Z,64.05
2019-05-26T01:04:17.895Z,64.39
2019-05-26T01:06:49.788Z,64.03
2019-05-26T01:09:21.876Z,64.50
2019-05-26T01:11:55.094Z,64.43
2019-05-26T01:14:27.001Z,64.24
2019-05-26T01:16:58.892Z,64.45
2019-05-26T01:19:31.683Z,64.80
2019-05-26T01:22:05.859Z,64.83
2019-05-26T01:24:40.059Z,64.88
2019-05-26T01:27:11.941Z,64.62
2019-05-26T01:29:43.822Z,64.14
2019-05-26T01:32:15.709Z,63.53
2019-05-26T01:34:47.621Z,63.72
2019-05-26T01:37:19.496Z,64.12
2019-05-26T01:39:51.373Z,64.18
2019-05-26T01:42:23.262Z,64.23
2019-05-26T01:44:55.075Z,63.95
2019-05-26T01:47:27.018Z,63.42
2019-05-26T01:49:58.897Z,63.81
2019-05-26T01:52:30.758Z,63.93
2019-05-26T01:55:02.552Z,64.25
2019-05-26T01:57:34.634Z,64.27
2019-05-26T02:00:06.746Z,64.35
2019-05-26T02:02:39.921Z,64.17
2019-05-26T02:05:11.812Z,64.13
2019-05-26T02:07:43.665Z,64.45
2019-05-26T02:10:16.173Z,65.03
2019-05-26T02:12:48.546Z,64.97
2019-05-26T02:15:21.830Z,64.57
2019-05-26T02:17:53.704Z,64.44
2019-05-26T02:20:25.598Z,64.24
2019-05-26T02:22:58.222Z,64.35
2019-05-26T02:25:30.212Z,64.29
2019-05-26T02:28:02.029Z,64.43
2019-05-26T02:30:34.892Z,64.52
2019-05-26T02:33:06.709Z,64.41
2019-05-26T02:35:38.575Z,64.42
2019-05-26T02:38:10.366Z,64.27
2019-05-26T02:40:42.165Z,64.15
2019-05-26T02:43:14.042Z,64.54
2019-05-26T02:45:45.841Z,64.77
2019-05-26T02:48:17.681Z,65.35
2019-05-26T02:50:49.541Z,64.89
2019-05-26T02:53:24.548Z,64.62
2019-05-26T02:55:54.968Z,64.41
2019-05-26T02:58:27.029Z,64.21
2019-05-26T03:00:58.776Z,63.96
2019-05-26T03:03:30.641Z,63.70
2019-05-26T03:06:02.952Z,63.98
2019-05-26T03:08:36.281Z,63.82
2019-05-26T03:11:09.072Z,64.12
2019-05-26T03:13:41.158Z,64.10
2019-05-26T03:16:13.129Z,64.25
2019-05-26T03:18:45.501Z,64.00
2019-05-26T03:21:18.854Z,63.79
2019-05-26T03:23:51.127Z,64.31
2019-05-26T03:26:23.057Z,64.70
2019-05-26T03:28:54.863Z,65.12
2019-05-26T03:31:26.963Z,65.24
2019-05-26T03:33:59.125Z,64.66
2019-05-26T03:36:31.035Z,65.16
2019-05-26T03:39:02.878Z,65.31
2019-05-26T03:41:34.755Z,65.26
2019-05-26T03:44:06.641Z,65.05
2019-05-26T03:46:38.493Z,65.34
2019-05-26T03:49:10.699Z,65.85
2019-05-26T03:51:42.562Z,65.93
2019-05-26T03:54:14.359Z,65.96
2019-05-26T03:56:46.154Z,65.56
2019-05-26T03:59:17.967Z,65.70
2019-05-26T04:01:49.828Z,65.77
2019-05-26T04:04:21.684Z,66.03
2019-05-26T04:06:53.555Z,66.07
2019-05-26T04:09:25.479Z,66.22
2019-05-26T04:11:57.417Z,66.17
2019-05-26T04:14:29.213Z,66.48
2019-05-26T04:17:01.018Z,66.48
2019-05-26T04:19:32.830Z,67.18
2019-05-26T04:22:04.750Z,66.91
2019-05-26T04:24:40.040Z,66.66
2019-05-26T04:27:11.836Z,66.82
2019-05-26T04:29:43.645Z,66.71
2019-05-26T04:32:15.448Z,67.27
2019-05-26T04:34:47.240Z,67.12
2019-05-26T04:37:19.022Z,67.16
2019-05-26T04:39:50.812Z,66.77
2019-05-26T04:42:22.673Z,66.41
2019-05-26T04:44:54.493Z,65.99
2019-05-26T04:47:26.366Z,65.17
2019-05-26T04:49:59.860Z,65.17
2019-05-26T04:52:32.057Z,65.25
2019-05-26T04:55:03.935Z,65.19
2019-05-26T04:57:35.719Z,65.02
2019-05-26T05:00:08.414Z,65.78
2019-05-26T05:02:40.596Z,65.39
2019-05-26T05:05:14.865Z,65.60
2019-05-26T05:07:46.720Z,65.98
2019-05-26T05:10:18.616Z,66.03
2019-05-26T05:12:50.430Z,65.97
2019-05-26T05:15:22.259Z,65.16
2019-05-26T05:17:54.107Z,65.58
2019-05-26T05:20:25.992Z,65.22
2019-05-26T05:22:57.863Z,65.51
2019-05-26T05:25:30.018Z,65.42
2019-05-26T05:28:01.871Z,65.13
2019-05-26T05:30:33.685Z,65.96
2019-05-26T05:33:05.535Z,65.51
2019-05-26T05:35:37.332Z,65.27
2019-05-26T05:38:09.124Z,64.88
2019-05-26T05:40:40.897Z,64.12
2019-05-26T05:43:12.765Z,64.20
2019-05-26T05:45:44.604Z,64.13
2019-05-26T05:48:16.408Z,63.31
2019-05-26T05:50:48.288Z,63.31
2019-05-26T05:53:20.104Z,63.94
2019-05-26T05:55:51.898Z,63.74
2019-05-26T05:58:24.007Z,63.37
2019-05-26T06:00:55.857Z,63.37
2019-05-26T06:03:27.950Z,63.17
2019-05-26T06:05:59.906Z,63.48
2019-05-26T06:08:32.760Z,63.15
2019-05-26T06:11:15.913Z,63.15
2019-05-26T06:13:39.078Z,62.94
2019-05-26T06:16:10.873Z,62.92
2019-05-26T06:18:43.723Z,62.93
2019-05-26T06:21:15.580Z,62.93
2019-05-26T06:23:47.366Z,62.50
2019-05-26T06:26:19.143Z,62.33
2019-05-26T06:28:52.423Z,62.89
2019-05-26T06:31:24.672Z,61.72
2019-05-26T06:33:56.507Z,61.68
2019-05-26T06:36:28.554Z,60.22
2019-05-26T06:39:00.669Z,60.70
2019-05-26T06:41:34.445Z,60.41
2019-05-26T06:44:06.625Z,60.26
2019-05-26T06:46:38.432Z,59.65
2019-05-26T06:49:10.277Z,59.16
2019-05-26T06:51:42.073Z,59.16
2019-05-26T06:54:13.943Z,59.70
2019-05-26T06:56:45.963Z,59.72
2019-05-26T06:59:18.015Z,59.65
2019-05-26T07:01:50.134Z,59.25
2019-05-26T07:04:21.920Z,58.88
2019-05-26T07:06:53.966Z,58.67
2019-05-26T07:09:25.867Z,59.32
2019-05-26T07:12:00.392Z,59.14
2019-05-26T07:14:31.636Z,58.10
2019-05-26T07:17:03.645Z,57.97
2019-05-26T07:19:36.416Z,55.35
2019-05-26T07:22:09.587Z,55.22
2019-05-26T07:24:41.402Z,53.71
2019-05-26T07:27:14.274Z,53.20
2019-05-26T07:29:46.242Z,53.22
2019-05-26T07:32:18.326Z,51.35
2019-05-26T07:34:50.405Z,52.78
2019-05-26T07:37:22.281Z,53.07
2019-05-26T07:39:54.105Z,51.99
2019-05-26T07:42:25.986Z,52.18
2019-05-26T07:44:58.072Z,50.64
2019-05-26T07:47:30.077Z,49.32
2019-05-26T07:50:02.120Z,50.21
2019-05-26T07:52:34.306Z,49.67
2019-05-26T07:55:06.916Z,50.22
2019-05-26T07:57:39.361Z,51.14
2019-05-26T08:00:11.477Z,49.32
2019-05-26T08:02:43.775Z,49.66
2019-05-26T08:05:15.571Z,48.25
2019-05-26T08:07:48.774Z,48.74
2019-05-26T08:10:21.138Z,48.22
2019-05-26T08:12:52.941Z,48.79
2019-05-26T08:15:24.817Z,49.30
2019-05-26T08:17:56.893Z,49.33
2019-05-26T08:20:28.942Z,48.55
2019-05-26T08:23:01.225Z,48.93
2019-05-26T08:25:33.430Z,49.46
2019-05-26T08:28:05.923Z,47.64
2019-05-26T08:30:38.861Z,48.30
2019-05-26T08:33:11.070Z,49.09
2019-05-26T08:35:43.700Z,47.14
2019-05-26T08:38:16.199Z,47.33
2019-05-26T08:40:48.332Z,47.84
2019-05-26T08:43:20.181Z,46.55
2019-05-26T08:45:52.267Z,47.08
2019-05-26T08:48:24.615Z,46.84
2019-05-26T08:50:56.547Z,46.10
2019-05-26T08:53:28.759Z,45.50
2019-05-26T08:56:01.447Z,46.26
2019-05-26T08:58:33.753Z,45.82
2019-05-26T09:01:06.231Z,45.33
2019-05-26T09:03:38.662Z,45.22
2019-05-26T09:06:11.996Z,46.72
2019-05-26T09:08:44.442Z,45.77
2019-05-26T09:11:17.012Z,46.66
2019-05-26T09:13:48.970Z,44.51
2019-05-26T09:16:21.006Z,45.37
2019-05-26T09:18:53.443Z,45.81
2019-05-26T09:21:26.175Z,45.94
2019-05-26T09:23:59.145Z,45.57
2019-05-26T09:26:31.831Z,44.88
2019-05-26T09:29:04.524Z,45.94
2019-05-26T09:31:37.250Z,45.01
2019-05-26T09:34:09.642Z,45.47
2019-05-26T09:36:41.652Z,44.52
2019-05-26T09:39:14.313Z,45.46
2019-05-26T09:41:48.711Z,44.79
2019-05-26T09:44:22.261Z,43.76
2019-05-26T09:46:54.425Z,43.30
2019-05-26T09:49:26.784Z,44.23
2019-05-26T09:51:59.139Z,45.12
2019-05-26T09:54:31.942Z,43.64
2019-05-26T09:57:04.286Z,43.55
2019-05-26T09:59:36.452Z,44.76
2019-05-26T10:02:08.584Z,43.70
2019-05-26T10:04:41.634Z,43.09
2019-05-26T10:07:16.054Z,43.65
2019-05-26T10:09:48.143Z,43.12
2019-05-26T10:12:20.371Z,40.69
2019-05-26T10:14:52.434Z,41.14
2019-05-26T10:17:24.750Z,41.28
2019-05-26T10:19:56.593Z,41.90
2019-05-26T10:22:29.464Z,41.94
2019-05-26T10:25:01.321Z,40.41
2019-05-26T10:27:33.199Z,40.97
2019-05-26T10:30:05.480Z,39.76
2019-05-26T10:32:38.354Z,39.53
2019-05-26T10:35:10.303Z,38.27
2019-05-26T10:37:42.377Z,38.54
2019-05-26T10:40:15.366Z,37.94
2019-05-26T10:42:47.725Z,37.92
2019-05-26T10:45:19.593Z,38.58
2019-05-26T10:47:51.500Z,36.86
2019-05-26T10:50:23.283Z,37.06
2019-05-26T10:52:55.132Z,37.07
2019-05-26T10:55:27.164Z,37.70
2019-05-26T10:57:59.042Z,37.40
2019-05-26T11:00:33.122Z,37.07
2019-05-26T11:03:04.523Z,36.70
2019-05-26T11:05:36.492Z,34.67
2019-05-26T11:08:08.349Z,35.75
2019-05-26T11:10:40.188Z,35.78
2019-05-26T11:13:12.083Z,35.35
2019-05-26T11:15:43.922Z,34.67
2019-05-26T11:18:16.758Z,34.39
2019-05-26T11:20:48.613Z,33.71
2019-05-26T11:23:20.469Z,34.31
2019-05-26T11:25:52.317Z,35.17
2019-05-26T11:28:24.088Z,34.92
2019-05-26T11:30:55.950Z,35.81
2019-05-26T11:33:27.889Z,34.45
2019-05-26T11:35:59.660Z,33.00
2019-05-26T11:38:33.600Z,32.65
2019-05-26T11:41:04.994Z,33.12
2019-05-26T11:43:36.844Z,33.06
2019-05-26T11:46:08.631Z,33.22
2019-05-26T11:48:40.416Z,33.47
2019-05-26T11:51:12.176Z,33.99
2019-05-26T11:53:44.022Z,35.35
2019-05-26T11:56:15.815Z,33.00
2019-05-26T11:58:47.688Z,33.48
2019-05-26T12:01:22.865Z,31.55
2019-05-26T12:03:53.002Z,31.79
2019-05-26T12:06:24.856Z,32.65
2019-05-26T12:08:56.632Z,32.64
2019-05-26T12:11:28.508Z,33.20
2019-05-26T12:14:00.294Z,32.09
2019-05-26T12:16:32.162Z,30.95
2019-05-26T12:19:04.017Z,32.19
2019-05-26T12:21:35.811Z,31.53
2019-05-26T12:24:07.591Z,31.34
2019-05-26T12:26:39.435Z,31.42
2019-05-26T12:29:11.284Z,30.73
2019-05-26T12:31:43.075Z,31.21
2019-05-26T12:34:14.940Z,30.13
2019-05-26T12:36:46.808Z,31.32
2019-05-26T12:39:18.678Z,31.09
2019-05-26T12:41:50.543Z,31.18
2019-05-26T12:44:22.406Z,31.67
2019-05-26T12:46:54.258Z,30.47
2019-05-26T12:49:27.972Z,30.02
2019-05-26T12:51:59.666Z,31.47
2019-05-26T12:54:32.731Z,31.97
2019-05-26T12:57:04.515Z,31.39
2019-05-26T12:59:36.378Z,30.64
2019-05-26T13:02:09.131Z,32.47
2019-05-26T13:04:40.922Z,31.49
2019-05-26T13:07:12.694Z,31.74
2019-05-26T13:09:44.551Z,30.86
2019-05-26T13:12:16.330Z,30.88
2019-05-26T13:14:48.118Z,30.69
2019-05-26T13:17:19.904Z,30.16
2019-05-26T13:19:51.720Z,30.47
2019-05-26T13:22:23.577Z,30.04
2019-05-26T13:24:55.364Z,30.85
2019-05-26T13:27:27.466Z,30.63
2019-05-26T13:29:59.261Z,30.30
2019-05-26T13:32:31.469Z,31.12
2019-05-26T13:35:03.309Z,30.99
2019-05-26T13:37:35.150Z,31.21
2019-05-26T13:40:07.660Z,31.83
2019-05-26T13:42:40.442Z,31.20
2019-05-26T13:45:22.263Z,32.93
2019-05-26T13:47:46.574Z,31.65
2019-05-26T13:50:18.897Z,30.82
2019-05-26T13:52:52.158Z,29.21
2019-05-26T13:55:24.000Z,28.97
2019-05-26T13:57:55.857Z,28.98
2019-05-26T14:00:27.890Z,28.55
2019-05-26T14:02:59.754Z,29.80
2019-05-26T14:05:31.642Z,29.02
2019-05-26T14:08:03.492Z,28.70
2019-05-26T14:10:37.962Z,29.77
2019-05-26T14:13:10.049Z,30.14
2019-05-26T14:15:43.323Z,28.06
2019-05-26T14:18:18.112Z,28.10
2019-05-26T14:20:48.892Z,27.60
2019-05-26T14:23:20.668Z,27.87
2019-05-26T14:25:52.440Z,26.28
2019-05-26T14:28:24.231Z,27.29
2019-05-26T14:30:56.019Z,27.49
2019-05-26T14:33:27.867Z,26.29
2019-05-26T14:35:59.683Z,26.66
2019-05-26T14:38:42.696Z,26.20
2019-05-26T14:41:05.157Z,26.06
2019-05-26T14:43:36.990Z,26.10
2019-05-26T14:46:08.997Z,25.75
2019-05-26T14:48:43.923Z,27.38
2019-05-26T14:51:15.783Z,27.79
2019-05-26T14:53:47.634Z,27.99
2019-05-26T14:56:19.461Z,29.35
2019-05-26T14:58:51.268Z,29.42
2019-05-26T15:01:23.061Z,29.45
2019-05-26T15:03:54.884Z,29.97
2019-05-26T15:06:26.658Z,29.01
2019-05-26T15:08:58.544Z,28.76
2019-05-26T15:11:30.362Z,28.21
2019-05-26T15:14:02.205Z,27.74
2019-05-26T15:16:34.055Z,26.99
2019-05-26T15:19:05.938Z,27.89
2019-05-26T15:21:37.798Z,27.30
2019-05-26T15:24:09.578Z,27.76
2019-05-26T15:26:41.438Z,27.55
2019-05-26T15:29:13.301Z,27.04
2019-05-26T15:31:45.153Z,26.09
2019-05-26T15:34:17.008Z,25.84
2019-05-26T15:36:48.838Z,25.41
2019-05-26T15:39:20.732Z,25.10
2019-05-26T15:41:52.657Z,25.16
2019-05-26T15:44:24.432Z,25.23
2019-05-26T15:46:56.399Z,24.90
2019-05-26T15:49:28.442Z,24.65
2019-05-26T15:52:00.217Z,24.31
2019-05-26T15:54:32.103Z,24.81
2019-05-26T15:57:03.880Z,26.01
2019-05-26T15:59:35.728Z,27.25
2019-05-26T16:02:07.592Z,28.26
2019-05-26T16:04:39.559Z,28.88
2019-05-26T16:07:11.824Z,29.66
2019-05-26T16:09:43.613Z,30.61
2019-05-26T16:12:15.456Z,29.12
2019-05-26T16:14:47.315Z,30.21
2019-05-26T16:17:19.099Z,30.83
2019-05-26T16:19:50.939Z,31.09
2019-05-26T16:22:22.802Z,30.89
2019-05-26T16:24:54.568Z,31.40
2019-05-26T16:27:26.359Z,31.83
2019-05-26T16:29:58.480Z,31.65
2019-05-26T16:32:30.311Z,32.23
2019-05-26T16:35:02.239Z,32.82
2019-05-26T16:37:34.184Z,33.01
2019-05-26T16:40:06.098Z,33.26
2019-05-26T16:42:38.361Z,33.71
2019-05-26T16:45:11.290Z,34.16
2019-05-26T16:47:43.137Z,34.27
2019-05-26T16:50:15.011Z,34.38
2019-05-26T16:52:46.901Z,34.34
2019-05-26T16:55:18.740Z,34.86
2019-05-26T16:57:50.610Z,34.77
2019-05-26T17:00:22.426Z,34.50
2019-05-26T17:02:54.780Z,34.76
2019-05-26T17:05:27.637Z,35.30
2019-05-26T17:07:59.653Z,35.21
2019-05-26T17:10:31.692Z,35.18
2019-05-26T17:13:03.476Z,35.59
2019-05-26T17:15:35.998Z,35.91
2019-05-26T17:18:07.781Z,35.56
2019-05-26T17:20:40.517Z,35.68
2019-05-26T17:23:12.402Z,35.78
2019-05-26T17:25:44.185Z,35.42
2019-05-26T17:28:15.971Z,35.20
2019-05-26T17:30:47.799Z,34.74
2019-05-26T17:33:19.696Z,35.10
2019-05-26T17:35:51.589Z,34.85
2019-05-26T17:38:23.411Z,34.85
2019-05-26T17:40:55.283Z,34.77
2019-05-26T17:43:27.103Z,35.13
2019-05-26T17:45:59.759Z,35.32
2019-05-26T17:48:32.706Z,36.35
2019-05-26T17:51:04.742Z,35.96
2019-05-26T17:53:38.957Z,36.49
2019-05-26T17:56:11.215Z,36.91
2019-05-26T17:58:43.223Z,36.96
2019-05-26T18:01:16.112Z,37.06
2019-05-26T18:03:47.978Z,37.21
2019-05-26T18:06:20.046Z,37.38
2019-05-26T18:08:52.254Z,37.42
2019-05-26T18:11:24.452Z,37.98
2019-05-26T18:13:57.378Z,38.12
2019-05-26T18:16:29.768Z,38.29
2019-05-26T18:19:04.396Z,38.26
2019-05-26T18:21:36.270Z,38.30
2019-05-26T18:24:08.223Z,38.49
2019-05-26T18:26:40.033Z,38.75
2019-05-26T18:29:11.929Z,39.21
2019-05-26T18:31:44.163Z,38.88
2019-05-26T18:34:16.298Z,39.50
2019-05-26T18:36:48.534Z,38.96
2019-05-26T18:39:21.197Z,39.06
2019-05-26T18:41:53.538Z,40.03
2019-05-26T18:44:26.130Z,39.59
2019-05-26T18:46:58.945Z,40.09
2019-05-26T18:49:31.251Z,39.95
2019-05-26T18:52:04.045Z,39.13
2019-05-26T18:54:37.643Z,39.23
2019-05-26T18:57:10.340Z,39.64
2019-05-26T18:59:43.301Z,40.10
2019-05-26T19:02:15.426Z,39.94
2019-05-26T19:04:47.697Z,39.62
2019-05-26T19:07:20.085Z,40.23
2019-05-26T19:09:52.182Z,40.26
2019-05-26T19:12:24.847Z,39.97
2019-05-26T19:17:30.510Z,40.84
2019-05-26T19:20:15.632Z,40.40
2019-05-26T19:22:39.000Z,40.74
2019-05-26T19:25:10.898Z,41.26
2019-05-26T19:27:43.291Z,41.89
2019-05-26T19:30:17.242Z,42.67
2019-05-26T19:32:49.443Z,42.65
2019-05-26T19:35:21.884Z,42.77
2019-05-26T19:37:54.347Z,42.59
2019-05-26T19:40:26.799Z,42.49
2019-05-26T19:42:59.287Z,41.88
2019-05-26T19:45:31.388Z,42.43
2019-05-26T19:48:04.119Z,43.07
2019-05-26T19:50:36.006Z,42.88
2019-05-26T19:53:08.189Z,43.15
2019-05-26T19:55:40.170Z,42.86
2019-05-26T19:58:12.519Z,43.12
2019-05-26T20:00:45.119Z,43.53
2019-05-26T20:03:17.544Z,43.95
2019-05-26T20:05:49.558Z,44.25
2019-05-26T20:08:21.989Z,44.83
2019-05-26T20:10:55.370Z,44.46
2019-05-26T20:13:28.096Z,44.18
2019-05-26T20:16:00.420Z,44.37
2019-05-26T20:18:32.970Z,43.83
2019-05-26T20:21:05.411Z,44.40
2019-05-26T20:23:37.900Z,44.08
2019-05-26T20:26:10.211Z,44.12
2019-05-26T20:28:42.420Z,44.30
2019-05-26T20:31:15.232Z,44.40
2019-05-26T20:33:49.242Z,45.22
2019-05-26T20:36:22.294Z,45.73
2019-05-26T20:38:54.874Z,45.50
2019-05-26T20:41:27.330Z,46.71
2019-05-26T20:43:59.490Z,47.19
2019-05-26T20:46:31.507Z,45.68
2019-05-26T20:49:03.469Z,45.76
2019-05-26T20:51:35.481Z,47.49
2019-05-26T20:54:07.330Z,47.48
2019-05-26T20:56:39.677Z,47.95
2019-05-26T20:59:11.702Z,47.47
2019-05-26T21:01:44.101Z,47.99
2019-05-26T21:04:16.019Z,47.64
2019-05-26T21:06:48.327Z,47.29
2019-05-26T21:09:20.653Z,47.67
2019-05-26T21:11:53.098Z,48.46
2019-05-26T21:14:24.959Z,49.11
2019-05-26T21:16:56.836Z,49.51
2019-05-26T21:19:29.888Z,49.14
2019-05-26T21:22:02.869Z,50.64
2019-05-26T21:24:35.027Z,49.67
2019-05-26T21:27:08.566Z,49.46
2019-05-26T21:29:40.444Z,49.96
2019-05-26T21:32:12.277Z,48.73
2019-05-26T21:34:44.075Z,49.65
2019-05-26T21:37:15.880Z,50.79
2019-05-26T21:39:47.777Z,50.92
2019-05-26T21:42:20.629Z,50.77
2019-05-26T21:44:52.408Z,51.11
2019-05-26T21:47:24.783Z,51.34
2019-05-26T21:49:56.578Z,51.64
2019-05-26T21:52:28.624Z,51.42
2019-05-26T21:55:00.440Z,51.62
2019-05-26T21:57:32.313Z,51.50
2019-05-26T22:00:04.947Z,52.15
2019-05-26T22:02:38.317Z,52.38
2019-05-26T22:05:10.575Z,51.14
2019-05-26T22:07:42.843Z,51.20
2019-05-26T22:10:14.754Z,50.03
2019-05-26T22:12:46.707Z,49.94
2019-05-26T22:15:18.661Z,49.72
2019-05-26T22:17:50.824Z,49.89
2019-05-26T22:20:22.601Z,49.55
2019-05-26T22:22:54.456Z,49.71
2019-05-26T22:25:26.293Z,49.71
2019-05-26T22:28:01.219Z,49.60
2019-05-26T22:30:33.376Z,49.71
2019-05-26T22:33:05.245Z,50.16
2019-05-26T22:35:37.349Z,49.73
2019-05-26T22:38:09.139Z,49.72
2019-05-26T22:40:41.492Z,50.43
2019-05-26T22:43:13.337Z,50.16
2019-05-26T22:45:45.190Z,50.11
2019-05-26T22:48:17.226Z,50.15
2019-05-26T22:50:49.747Z,51.80
2019-05-26T22:53:21.650Z,50.27
2019-05-26T22:55:53.706Z,50.22
2019-05-26T22:58:25.740Z,50.30
2019-05-26T23:00:57.644Z,50.69
2019-05-26T23:03:30.023Z,50.66
2019-05-26T23:06:02.692Z,50.25
2019-05-26T23:08:34.431Z,50.32
2019-05-26T23:11:07.554Z,50.48
2019-05-26T23:13:41.122Z,50.59
2019-05-26T23:16:14.523Z,50.86
2019-05-26T23:18:48.192Z,51.05
2019-05-26T23:21:20.341Z,52.36
2019-05-26T23:23:53.461Z,51.00
2019-05-26T23:26:26.651Z,51.24
2019-05-26T23:29:00.025Z,50.97
2019-05-26T23:31:33.232Z,51.00
2019-05-26T23:34:06.789Z,51.34
2019-05-26T23:36:38.865Z,51.93
2019-05-26T23:39:11.418Z,53.40
2019-05-26T23:41:43.275Z,53.99
2019-05-26T23:44:16.403Z,52.07
2019-05-26T23:46:48.272Z,52.22
2019-05-26T23:49:20.358Z,51.95
2019-05-26T23:51:52.136Z,51.97
2019-05-26T23:54:23.912Z,53.52
2019-05-26T23:56:55.916Z,54.07
2019-05-26T23:59:27.720Z,54.20
